Terminal Aerodrome Forecast
Issued by NWS

Home | Current Version | Previous Version | Text Only | Print | Product List | Glossary On
Versions: 1 2 3 4 5 6 7 8 9 10 11 12 13 14
000
FTUS44 KBMX 310700 AAA
TAFTCL
TAF AMD
KTCL 310756Z 3108/0106 09003KT P6SM BKN250
     FM310900 VRB02KT 6SM BR BKN025
      TEMPO 3110/3114 BKN004 BKN012
     FM311400 20007KT 6SM HZ SCT006 BKN015
     FM311600 21007KT P6SM SCT050
     FM010200 00000KT P6SM SKC=

USA.gov is the U.S. government's official web portal to all federal, state and local government web resources and services.